createdAt,value
2023-05-10T04:17:51.171Z,21.2
2023-05-10T04:22:53.286Z,21.2
2023-05-10T04:27:55.554Z,21.2
2023-05-10T04:32:57.852Z,21.2
2023-05-10T04:37:59.958Z,21.2
2023-05-10T04:43:02.296Z,21.2
2023-05-10T04:48:04.512Z,21.2
2023-05-10T04:53:07.322Z,21.2
2023-05-10T04:58:09.457Z,21.2
2023-05-10T05:03:11.665Z,21.2
2023-05-10T05:08:13.782Z,21.1
2023-05-10T05:13:17.603Z,21.1
2023-05-10T05:23:30.427Z,21.1
2023-05-10T05:28:32.535Z,21.1
2023-05-10T05:33:35.590Z,21.1
2023-05-10T05:38:37.783Z,21.1
2023-05-10T05:43:39.979Z,21.1
2023-05-10T05:48:45.392Z,21.1
2023-05-10T05:53:47.763Z,21.1
2023-05-10T05:58:49.970Z,21.1
2023-05-10T06:03:53.828Z,21.1
2023-05-10T06:09:00.580Z,21.1
2023-05-10T06:14:05.972Z,21.1
2023-05-10T06:19:08.160Z,21.1
2023-05-10T06:24:10.534Z,21.2
2023-05-10T06:29:12.568Z,21.3
2023-05-10T06:34:14.705Z,21.4
2023-05-10T06:39:21.584Z,21.4
2023-05-10T06:44:23.760Z,21.4
2023-05-10T06:49:26.757Z,21.6
2023-05-10T06:54:28.924Z,21.7
2023-05-10T06:59:32.580Z,21.7
2023-05-10T07:04:34.751Z,21.7
2023-05-10T07:09:36.956Z,21.7
2023-05-10T07:14:44.111Z,21.7
2023-05-10T07:19:46.976Z,21.6
2023-05-10T07:24:49.239Z,21.5
2023-05-10T07:29:52.113Z,21.4
2023-05-10T07:34:55.808Z,21.4
2023-05-10T07:39:57.956Z,21.4
2023-05-10T07:45:00.335Z,21.4
2023-05-10T07:50:03.241Z,21.4
2023-05-10T07:55:06.895Z,21.4
2023-05-10T08:00:09.359Z,21.4
2023-05-10T08:05:13.018Z,21.4
2023-05-10T08:10:15.303Z,21.4
2023-05-10T08:15:18.608Z,21.4
2023-05-10T08:20:21.256Z,21.4
2023-05-10T08:25:24.221Z,21.4
2023-05-10T08:30:26.316Z,21.4
2023-05-10T08:35:28.560Z,21.4
2023-05-10T08:40:30.889Z,21.4
2023-05-10T08:45:32.945Z,21.4
2023-05-10T08:50:39.819Z,21.4
2023-05-10T08:55:46.791Z,21.4
2023-05-10T09:00:48.939Z,21.4
2023-05-10T09:05:52.692Z,21.4
2023-05-10T09:10:59.548Z,21.4
2023-05-10T09:16:07.081Z,21.4
2023-05-10T09:21:03.813Z,21.4
2023-05-10T09:26:07.082Z,21.4
2023-05-10T09:31:09.339Z,21.4
2023-05-10T09:36:11.481Z,21.4
2023-05-10T09:41:15.887Z,21.3
2023-05-10T09:46:18.085Z,21.3
2023-05-10T09:51:20.319Z,21.3
2023-05-10T09:56:23.301Z,21.3
2023-05-10T10:01:26.205Z,21.3
2023-05-10T10:06:30.328Z,21.3
2023-05-10T10:06:52.511Z,21.4
2023-05-10T10:11:55.540Z,21.4
2023-05-10T10:17:07.159Z,21.4
2023-05-10T10:22:05.528Z,21.4
2023-05-10T10:27:07.592Z,21.1
2023-05-10T10:32:10.525Z,20.8
2023-05-10T10:37:12.776Z,20.6
2023-05-10T10:42:16.744Z,20.4
2023-05-10T10:47:18.885Z,20.4
2023-05-10T10:52:21.900Z,20.5
2023-05-10T10:57:24.096Z,20.9
2023-05-10T11:02:26.217Z,21.3
2023-05-10T11:07:32.982Z,21.8
2023-05-10T11:12:39.948Z,22.2
2023-05-10T11:17:42.095Z,22.6
2023-05-10T11:22:45.015Z,22.8
2023-05-10T11:27:47.417Z,22.9
2023-05-10T11:32:49.721Z,22.9
2023-05-10T11:37:51.816Z,23
2023-05-10T11:42:55.105Z,23
2023-05-10T11:47:58.284Z,23
2023-05-10T11:53:01.185Z,22.9
2023-05-10T11:58:03.533Z,22.9
2023-05-10T12:03:05.868Z,22.8
2023-05-10T12:08:07.979Z,22.8
2023-05-10T12:13:10.315Z,22.7
2023-05-10T12:18:12.666Z,22.7
2023-05-10T12:23:14.695Z,22.6
2023-05-10T12:28:17.717Z,22.5
2023-05-10T12:33:20.310Z,22.5
2023-05-10T12:38:22.458Z,22.4
2023-05-10T12:43:24.835Z,22.4
2023-05-10T12:48:27.758Z,22.3
2023-05-10T12:53:29.996Z,22.3
2023-05-10T12:58:35.814Z,22.2
2023-05-10T13:03:35.148Z,22.2
2023-05-10T13:08:38.101Z,22.1
2023-05-10T13:13:42.560Z,22
2023-05-10T13:18:45.557Z,22
2023-05-10T13:23:48.455Z,22
2023-05-10T13:28:51.583Z,21.9
2023-05-10T13:33:53.723Z,21.9
2023-05-10T13:38:56.766Z,21.8
2023-05-10T13:43:59.850Z,21.8
2023-05-10T13:49:02.827Z,21.8
2023-05-10T13:54:04.960Z,21.7
2023-05-10T13:59:11.908Z,21.7
2023-05-10T14:04:14.111Z,21.7
2023-05-10T14:09:16.334Z,21.6
2023-05-10T14:14:19.387Z,21.6
2023-05-10T14:24:29.956Z,21.6
2023-05-10T14:29:32.130Z,21.6
2023-05-10T14:34:35.322Z,21.6
2023-05-10T14:39:38.480Z,21.6
2023-05-10T14:44:40.658Z,21.5
2023-05-10T14:49:42.756Z,21.5
2023-05-10T14:54:45.069Z,21.5
2023-05-10T14:59:48.828Z,21.4
2023-05-10T15:04:52.536Z,21.4
2023-05-10T15:09:54.672Z,21.4
2023-05-10T15:14:58.369Z,21.5
2023-05-10T15:20:00.482Z,21.5
2023-05-10T15:25:02.719Z,21.5
2023-05-10T15:30:09.552Z,21.5
2023-05-10T15:35:12.708Z,21.5
2023-05-10T15:40:15.642Z,21.5
2023-05-10T15:45:20.263Z,21.4
2023-05-10T15:50:23.151Z,21.4
2023-05-10T15:55:28.580Z,21.3
2023-05-10T16:00:30.886Z,21.3
2023-05-10T16:05:33.030Z,21.2
2023-05-10T16:10:35.208Z,21.2
2023-05-10T16:15:37.393Z,21.2
2023-05-10T16:20:39.511Z,21.2
2023-05-10T16:25:41.822Z,21.2
2023-05-10T16:30:44.064Z,21.2
2023-05-10T16:35:49.363Z,21.1
2023-05-10T16:40:56.383Z,21.1
2023-05-10T16:46:00.096Z,21.1
2023-05-10T16:51:02.166Z,21.1
2023-05-10T16:56:06.624Z,21.1
2023-05-10T17:01:12.030Z,21.1
2023-05-10T17:06:14.986Z,21.1
2023-05-10T17:11:17.971Z,21.1
2023-05-10T17:16:22.663Z,21
2023-05-10T17:21:24.835Z,21
2023-05-10T17:26:31.090Z,20.9
2023-05-10T17:31:35.636Z,20.9
2023-05-10T17:36:37.723Z,20.9
2023-05-10T17:41:42.221Z,20.9
2023-05-10T17:46:45.428Z,20.9
2023-05-10T17:51:48.431Z,21
2023-05-10T18:01:59.200Z,21
2023-05-10T18:07:01.520Z,21
2023-05-10T18:12:04.264Z,20.9
2023-05-10T18:17:06.789Z,20.9
2023-05-10T18:22:11.361Z,20.9
2023-05-10T18:27:14.324Z,20.9
2023-05-10T18:32:16.465Z,20.8
2023-05-10T18:37:19.394Z,20.8
2023-05-10T18:42:22.460Z,20.8
2023-05-10T18:47:26.277Z,20.8
2023-05-10T18:52:28.386Z,20.7
2023-05-10T18:57:31.415Z,20.7
2023-05-10T19:02:33.744Z,20.7
2023-05-10T19:07:36.645Z,20.7
2023-05-10T19:12:38.789Z,20.8
2023-05-10T19:17:41.776Z,21
2023-05-10T19:22:54.743Z,21.4
2023-05-10T19:27:48.487Z,21.7
2023-05-10T19:32:51.422Z,22.1
2023-05-10T19:37:53.551Z,22.5
2023-05-10T19:43:00.764Z,22.8
2023-05-10T19:48:03.160Z,23
2023-05-10T19:53:06.815Z,23.1
2023-05-10T19:58:08.963Z,23.1
2023-05-10T20:03:11.926Z,23.1
2023-05-10T20:08:14.023Z,23.1
2023-05-10T20:13:16.966Z,23.1
2023-05-10T20:18:19.900Z,23.1
2023-05-10T20:23:24.332Z,23
2023-05-10T20:28:27.004Z,23
2023-05-10T20:33:29.198Z,22.9
2023-05-10T20:38:32.130Z,22.9
2023-05-10T20:43:34.282Z,22.8
2023-05-10T20:48:37.258Z,22.7
2023-05-10T20:53:39.385Z,22.7
2023-05-10T20:58:42.329Z,22.6
2023-05-10T21:03:45.390Z,22.5
2023-05-10T21:08:48.413Z,22.4
2023-05-10T21:13:51.362Z,22.3
2023-05-10T21:18:53.553Z,22.3
2023-05-10T21:23:55.657Z,22.2
2023-05-10T21:28:57.815Z,22.2
2023-05-10T21:34:04.654Z,22.1
2023-05-10T21:39:06.802Z,22
2023-05-10T21:44:09.034Z,22
2023-05-10T21:49:12.927Z,21.9
2023-05-10T21:54:15.233Z,21.9
2023-05-10T21:59:17.645Z,21.8
2023-05-10T22:04:20.668Z,21.8
2023-05-10T22:09:22.800Z,21.8
2023-05-10T22:14:25.720Z,21.8
2023-05-10T22:19:28.673Z,21.8
2023-05-10T22:24:31.024Z,21.8
2023-05-10T22:29:34.745Z,21.8
2023-05-10T22:34:37.711Z,21.7
2023-05-10T22:39:39.851Z,21.7
2023-05-10T22:44:42.156Z,21.8
2023-05-10T22:49:44.359Z,21.8
2023-05-10T22:54:46.555Z,21.8
2023-05-10T22:59:48.794Z,21.8
2023-05-10T23:04:51.186Z,21.8
2023-05-10T23:09:54.331Z,21.8
2023-05-10T23:14:56.497Z,21.7
